< < Back
Terminal Aerodrome Forecast


Current Version              Previous Versions:   1  2  3  4  5  6  7  8  9  

Terminal Aerodrome Forecast

917
FTUS42 KJAX 221700
TAFGNV
TAF
KGNV 221734Z 2218/2318 01008KT P6SM SKC
     FM230000 VRB02KT P6SM SKC
     FM231400 04008KT P6SM FEW030=



Latest METAR

696
SAUS70 KWBC 230500 RRB
MTRGNV
METAR KGNV 230453Z AUTO 02006KT 10SM CLR 14/12 A3003 RMK AO2 SLP167
T01390117 402610122


USA.gov is the U.S. government's official web portal to all federal, state and local government web resources and services.